createdAt,value
2018-01-24T00:00:50.356Z,1.90
2018-01-24T00:01:52.340Z,2.20
2018-01-24T00:02:53.560Z,2.17
2018-01-24T00:03:55.556Z,1.97
2018-01-24T00:04:56.816Z,2.20
2018-01-24T00:05:58.060Z,1.90
2018-01-24T00:06:59.332Z,2.27
2018-01-24T00:08:00.547Z,2.33
2018-01-24T00:09:02.992Z,2.73
2018-01-24T00:10:04.228Z,2.73
2018-01-24T00:11:05.465Z,1.93
2018-01-24T00:12:06.712Z,2.07
2018-01-24T00:13:08.688Z,2.03
2018-01-24T00:14:09.941Z,1.70
2018-01-24T00:15:11.190Z,2.17
2018-01-24T00:16:12.420Z,1.67
2018-01-24T00:17:13.676Z,1.77
2018-01-24T00:18:14.932Z,1.87
2018-01-24T00:19:17.288Z,1.83
2018-01-24T00:20:18.558Z,1.60
2018-01-24T00:21:19.807Z,1.93
2018-01-24T00:22:21.788Z,2.00
2018-01-24T00:23:23.784Z,1.87
2018-01-24T00:24:26.119Z,1.40
2018-01-24T00:25:27.375Z,2.67
2018-01-24T00:26:29.348Z,1.57
2018-01-24T00:27:30.596Z,2.10
2018-01-24T00:28:31.836Z,1.73
2018-01-24T00:29:33.420Z,1.90
2018-01-24T00:30:34.673Z,1.50
2018-01-24T00:31:36.668Z,1.30
2018-01-24T00:32:37.912Z,1.40
2018-01-24T00:33:39.168Z,1.60
2018-01-24T00:34:40.732Z,1.97
2018-01-24T00:35:42.700Z,2.53
2018-01-24T00:36:51.516Z,1.30
2018-01-24T00:37:53.490Z,1.87
2018-01-24T00:38:54.731Z,1.50
2018-01-24T00:39:56.232Z,1.90
2018-01-24T00:40:58.205Z,1.83
2018-01-24T00:41:59.422Z,1.50
2018-01-24T00:43:01.397Z,1.50
2018-01-24T00:44:02.638Z,1.93
2018-01-24T00:45:04.132Z,1.63
2018-01-24T00:46:05.384Z,1.67
2018-01-24T00:47:07.364Z,7.53
2018-01-24T00:48:08.599Z,1.50
2018-01-24T00:49:09.832Z,1.30
2018-01-24T00:50:11.352Z,1.30
2018-01-24T00:51:13.332Z,1.73
2018-01-24T00:52:14.572Z,1.40
2018-01-24T00:53:15.800Z,1.73
2018-01-24T00:54:17.042Z,1.50
2018-01-24T00:55:18.567Z,1.70
2018-01-24T00:56:19.808Z,1.70
2018-01-24T00:57:21.064Z,1.57
2018-01-24T00:58:22.294Z,1.77
2018-01-24T00:59:23.524Z,1.97
2018-01-24T01:00:25.110Z,1.33
2018-01-24T01:01:26.352Z,1.47
2018-01-24T01:02:27.584Z,1.40
2018-01-24T01:03:28.820Z,1.43
2018-01-24T01:04:30.064Z,1.87
2018-01-24T01:05:32.052Z,2.20
2018-01-24T01:06:33.288Z,1.63
2018-01-24T01:07:34.528Z,1.73
2018-01-24T01:08:35.755Z,1.57
2018-01-24T01:09:36.983Z,1.43
2018-01-24T01:10:38.580Z,2.00
2018-01-24T01:11:39.831Z,2.37
2018-01-24T01:12:41.809Z,1.70
2018-01-24T01:13:43.055Z,2.90
2018-01-24T01:14:44.298Z,2.20
2018-01-24T01:15:45.568Z,1.47
2018-01-24T01:16:46.803Z,1.40
2018-01-24T01:17:48.036Z,2.33
2018-01-24T01:18:49.272Z,1.50
2018-01-24T01:19:50.521Z,1.40
2018-01-24T01:20:52.084Z,1.73
2018-01-24T01:21:54.420Z,1.23
2018-01-24T01:22:55.667Z,1.83
2018-01-24T01:23:56.913Z,1.50
2018-01-24T01:24:58.911Z,1.67
2018-01-24T01:26:00.492Z,1.67
2018-01-24T01:27:01.736Z,1.50
2018-01-24T01:28:03.716Z,2.17
2018-01-24T01:29:04.968Z,2.50
2018-01-24T01:30:06.220Z,1.77
2018-01-24T01:31:07.479Z,1.50
2018-01-24T01:32:08.715Z,1.53
2018-01-24T01:33:09.961Z,2.10
2018-01-24T01:34:11.196Z,2.73
2018-01-24T01:35:12.438Z,1.67
2018-01-24T01:36:14.695Z,1.43
2018-01-24T01:37:16.670Z,1.47
2018-01-24T01:38:17.912Z,1.70
2018-01-24T01:39:19.149Z,1.40
2018-01-24T01:40:20.396Z,1.70
2018-01-24T01:41:21.928Z,1.43
2018-01-24T01:42:23.188Z,2.00
2018-01-24T01:43:24.457Z,1.67
2018-01-24T01:44:25.724Z,1.50
2018-01-24T01:45:26.974Z,1.80
2018-01-24T01:46:28.568Z,1.60
2018-01-24T01:47:29.820Z,2.03
2018-01-24T01:48:31.896Z,1.83
2018-01-24T01:49:33.900Z,1.50
2018-01-24T01:50:35.168Z,1.70
2018-01-24T01:51:37.208Z,1.60
2018-01-24T01:52:38.480Z,1.60
2018-01-24T01:53:39.747Z,2.33
2018-01-24T01:54:41.016Z,2.13
2018-01-24T01:55:42.248Z,1.50
2018-01-24T01:56:43.740Z,2.20
2018-01-24T01:57:44.976Z,1.93
2018-01-24T01:58:46.224Z,2.47
2018-01-24T01:59:47.480Z,2.00
2018-01-24T02:00:48.764Z,1.77
2018-01-24T02:01:50.262Z,2.07
2018-01-24T02:02:51.508Z,1.90
2018-01-24T02:03:52.748Z,2.50
2018-01-24T02:04:54.728Z,2.77
2018-01-24T02:05:55.964Z,2.83
2018-01-24T02:06:57.488Z,2.40
2018-01-24T02:07:59.456Z,2.00
2018-01-24T02:09:00.690Z,3.53
2018-01-24T02:10:01.962Z,1.80
2018-01-24T02:11:03.216Z,1.67
2018-01-24T02:12:04.769Z,2.20
2018-01-24T02:13:06.016Z,2.20
2018-01-24T02:14:07.999Z,2.40
2018-01-24T02:15:09.264Z,2.33
2018-01-24T02:16:10.524Z,3.37
2018-01-24T02:17:12.024Z,2.70
2018-01-24T02:18:13.304Z,1.80
2018-01-24T02:19:14.539Z,1.80
2018-01-24T02:20:15.828Z,1.70
2018-01-24T02:21:17.083Z,2.43
2018-01-24T02:22:18.660Z,1.60
2018-01-24T02:23:20.648Z,2.07
2018-01-24T02:24:21.919Z,2.17
2018-01-24T02:25:23.196Z,1.77
2018-01-24T02:26:25.196Z,1.93
2018-01-24T02:27:26.712Z,2.17
2018-01-24T02:28:27.988Z,2.00
2018-01-24T02:29:29.233Z,2.63
2018-01-24T02:30:30.488Z,1.80
2018-01-24T02:31:32.468Z,2.23
2018-01-24T02:32:33.984Z,1.87
2018-01-24T02:33:35.972Z,2.50
2018-01-24T02:34:37.251Z,1.60
2018-01-24T02:35:38.491Z,2.47
2018-01-24T02:36:39.732Z,1.80
2018-01-24T02:37:41.288Z,1.87
2018-01-24T02:38:55.594Z,2.03
2018-01-24T02:39:56.856Z,1.90
2018-01-24T02:40:58.834Z,2.20
2018-01-24T02:42:00.094Z,1.93
2018-01-24T02:43:01.622Z,1.60
2018-01-24T02:44:02.876Z,1.60
2018-01-24T02:45:04.125Z,1.37
2018-01-24T02:46:05.356Z,1.87
2018-01-24T02:47:07.336Z,1.53
2018-01-24T02:48:08.868Z,1.40
2018-01-24T02:49:10.138Z,1.63
2018-01-24T02:50:12.112Z,1.63
2018-01-24T02:51:13.328Z,2.57
2018-01-24T02:52:14.557Z,1.37
2018-01-24T02:53:16.834Z,1.50
2018-01-24T02:54:18.077Z,1.73
2018-01-24T02:55:19.317Z,4.17
2018-01-24T02:56:20.584Z,2.10
2018-01-24T02:57:21.840Z,1.53
2018-01-24T02:58:23.374Z,2.10
2018-01-24T02:59:24.616Z,1.63
2018-01-24T03:00:25.860Z,2.07
2018-01-24T03:01:27.844Z,2.53
2018-01-24T03:02:29.081Z,1.67
2018-01-24T03:03:30.615Z,2.13
2018-01-24T03:04:31.864Z,3.57
2018-01-24T03:05:33.120Z,1.40
2018-01-24T03:06:34.340Z,1.63
2018-01-24T03:07:35.576Z,1.50
2018-01-24T03:08:37.092Z,2.93
2018-01-24T03:09:38.316Z,1.73
2018-01-24T03:10:40.288Z,1.47
2018-01-24T03:11:41.548Z,1.43
2018-01-24T03:12:42.784Z,1.77
2018-01-24T03:13:45.040Z,1.60
2018-01-24T03:14:46.259Z,1.53
2018-01-24T03:15:47.508Z,2.67
2018-01-24T03:16:48.728Z,2.60
2018-01-24T03:17:49.988Z,1.50
2018-01-24T03:18:51.504Z,1.47
2018-01-24T03:19:52.748Z,1.60
2018-01-24T03:20:53.983Z,1.30
2018-01-24T03:21:55.244Z,1.30
2018-01-24T03:22:56.510Z,1.37
2018-01-24T03:23:58.775Z,1.33
2018-01-24T03:25:00.756Z,1.40
2018-01-24T03:26:02.008Z,1.17
2018-01-24T03:27:03.251Z,1.77
2018-01-24T03:28:04.508Z,1.37
2018-01-24T03:29:06.016Z,1.60
2018-01-24T03:30:07.258Z,3.67
2018-01-24T03:31:08.497Z,1.07
2018-01-24T03:32:09.748Z,1.77
2018-01-24T03:33:10.968Z,1.30
2018-01-24T03:34:12.544Z,1.77
2018-01-24T03:35:13.774Z,1.30
2018-01-24T03:36:15.068Z,1.53
2018-01-24T03:37:16.294Z,1.13
2018-01-24T03:38:17.528Z,1.50
2018-01-24T03:39:19.028Z,1.50
2018-01-24T03:40:20.268Z,1.47
2018-01-24T03:41:22.268Z,1.40
2018-01-24T03:42:23.516Z,1.20
2018-01-24T03:43:24.816Z,1.37
2018-01-24T03:44:26.328Z,1.30
2018-01-24T03:45:27.560Z,1.30
2018-01-24T03:46:28.800Z,1.30
2018-01-24T03:47:30.780Z,1.20
2018-01-24T03:48:32.004Z,1.40
2018-01-24T03:49:33.532Z,1.00
2018-01-24T03:50:35.517Z,2.83
2018-01-24T03:51:36.754Z,1.17
2018-01-24T03:52:37.992Z,1.73
2018-01-24T03:53:39.233Z,1.00
2018-01-24T03:54:40.748Z,1.50
2018-01-24T03:55:42.000Z,1.57
2018-01-24T03:56:43.234Z,2.53
2018-01-24T03:57:44.460Z,2.23
2018-01-24T03:58:45.702Z,2.83
2018-01-24T03:59:47.220Z,5.23
2018-01-24T04:00:49.222Z,3.47
2018-01-24T04:01:50.464Z,2.43
2018-01-24T04:02:51.712Z,3.23
2018-01-24T04:03:52.954Z,2.23
2018-01-24T04:04:54.476Z,1.40
2018-01-24T04:05:56.446Z,1.53
2018-01-24T04:06:57.705Z,1.30
2018-01-24T04:07:59.696Z,1.10
2018-01-24T04:09:00.976Z,1.37
2018-01-24T04:10:02.548Z,1.77
2018-01-24T04:11:03.804Z,2.20
2018-01-24T04:12:05.048Z,1.60
2018-01-24T04:13:06.300Z,1.43
2018-01-24T04:14:07.560Z,1.50
2018-01-24T04:15:08.836Z,1.17
2018-01-24T04:16:10.298Z,1.03
2018-01-24T04:17:11.532Z,1.17
2018-01-24T04:18:12.784Z,1.07
2018-01-24T04:19:14.012Z,1.73
2018-01-24T04:20:15.548Z,1.00
2018-01-24T04:21:16.800Z,1.17
2018-01-24T04:22:18.048Z,1.10
2018-01-24T04:23:19.376Z,1.27
2018-01-24T04:24:20.622Z,1.30
2018-01-24T04:25:22.176Z,1.27
2018-01-24T04:26:23.405Z,1.67
2018-01-24T04:27:24.648Z,1.97
2018-01-24T04:28:26.636Z,1.30
2018-01-24T04:29:27.880Z,1.73
2018-01-24T04:30:29.405Z,1.47
2018-01-24T04:31:30.644Z,2.07
2018-01-24T04:32:31.904Z,1.07
2018-01-24T04:33:33.129Z,1.20
2018-01-24T04:34:34.384Z,1.20
2018-01-24T04:35:36.052Z,1.33
2018-01-24T04:36:37.315Z,1.20
2018-01-24T04:37:39.320Z,1.33
2018-01-24T04:38:40.557Z,1.10
2018-01-24T04:39:41.794Z,1.30
2018-01-24T04:40:43.056Z,1.10
2018-01-24T04:41:45.044Z,1.17
2018-01-24T04:42:46.288Z,1.40
2018-01-24T04:43:47.542Z,1.37
2018-01-24T04:44:48.804Z,1.03
2018-01-24T04:45:50.089Z,1.53
2018-01-24T04:46:51.318Z,1.13
2018-01-24T04:47:52.560Z,1.50
2018-01-24T04:48:53.788Z,2.33
2018-01-24T04:49:55.059Z,1.07
2018-01-24T04:50:56.788Z,1.10
2018-01-24T04:51:58.061Z,1.80
2018-01-24T04:52:59.304Z,1.23
2018-01-24T04:54:00.548Z,1.10
2018-01-24T04:55:02.566Z,1.83
2018-01-24T04:56:04.136Z,1.53
2018-01-24T04:57:05.408Z,1.60
2018-01-24T04:58:06.684Z,0.93
2018-01-24T04:59:07.961Z,1.07
2018-01-24T05:00:09.964Z,1.27
2018-01-24T05:01:11.260Z,1.33
2018-01-24T05:02:12.547Z,1.40
2018-01-24T05:03:13.797Z,1.40
2018-01-24T05:04:15.064Z,1.53
2018-01-24T05:05:16.336Z,2.17
2018-01-24T05:06:17.598Z,1.70
2018-01-24T05:07:18.856Z,1.60
2018-01-24T05:08:20.869Z,1.40
2018-01-24T05:09:22.148Z,1.50
2018-01-24T05:10:24.178Z,1.93
2018-01-24T05:11:25.458Z,1.63
2018-01-24T05:12:26.731Z,2.53
2018-01-24T05:13:28.000Z,1.50
2018-01-24T05:14:30.032Z,1.30
2018-01-24T05:15:31.300Z,1.10
2018-01-24T05:16:33.644Z,1.37
2018-01-24T05:17:34.913Z,2.30
2018-01-24T05:18:36.146Z,1.40
2018-01-24T05:19:37.433Z,2.20
2018-01-24T05:20:39.444Z,1.40
2018-01-24T05:21:41.872Z,1.47
2018-01-24T05:22:43.896Z,1.70
2018-01-24T05:23:45.204Z,1.53
2018-01-24T05:24:46.448Z,1.90
2018-01-24T05:25:47.707Z,1.80
2018-01-24T05:26:48.994Z,1.57
2018-01-24T05:27:50.228Z,1.50
2018-01-24T05:28:51.452Z,2.00
2018-01-24T05:29:53.426Z,1.70
2018-01-24T05:30:54.715Z,1.40
2018-01-24T05:31:56.252Z,1.57
2018-01-24T05:32:57.504Z,1.70
2018-01-24T05:33:59.476Z,1.83
2018-01-24T05:35:00.728Z,1.80
2018-01-24T05:36:01.964Z,1.70
2018-01-24T05:37:03.495Z,1.60
2018-01-24T05:38:04.736Z,1.30
2018-01-24T05:39:05.958Z,1.50
2018-01-24T05:40:07.199Z,1.43
2018-01-24T05:41:08.445Z,1.40
2018-01-24T05:42:09.693Z,1.37
2018-01-24T05:43:10.940Z,1.70
2018-01-24T05:44:12.194Z,1.50
2018-01-24T05:45:13.452Z,1.50
2018-01-24T05:46:15.436Z,2.60
2018-01-24T05:47:16.688Z,1.40
2018-01-24T05:48:17.948Z,1.43
2018-01-24T05:49:19.185Z,1.63
2018-01-24T05:50:20.444Z,2.20
2018-01-24T05:51:22.460Z,1.10
2018-01-24T05:52:23.988Z,1.97
2018-01-24T05:53:25.237Z,1.17
2018-01-24T05:54:27.216Z,1.40
2018-01-24T05:55:28.468Z,2.00
2018-01-24T05:56:30.464Z,1.17
2018-01-24T05:57:32.009Z,1.40
2018-01-24T05:58:33.285Z,2.53
2018-01-24T05:59:34.528Z,1.73
2018-01-24T06:00:36.564Z,1.40
2018-01-24T06:01:37.816Z,1.90
2018-01-24T06:02:40.100Z,1.37
2018-01-24T06:03:41.344Z,1.40
2018-01-24T06:04:42.580Z,1.37
2018-01-24T06:05:43.835Z,1.40
2018-01-24T06:06:45.077Z,1.57
2018-01-24T06:07:46.357Z,1.73
2018-01-24T06:08:48.360Z,1.47
2018-01-24T06:09:49.608Z,1.40
2018-01-24T06:10:50.856Z,1.50
2018-01-24T06:11:52.109Z,1.70
2018-01-24T06:12:53.748Z,2.17
2018-01-24T06:13:54.988Z,1.70
2018-01-24T06:14:56.995Z,1.50
2018-01-24T06:15:58.242Z,2.93
2018-01-24T06:17:00.223Z,2.27
2018-01-24T06:18:01.487Z,1.30
2018-01-24T06:19:02.753Z,2.30
2018-01-24T06:20:04.001Z,1.67
2018-01-24T06:21:05.237Z,1.67
2018-01-24T06:22:06.496Z,2.00
2018-01-24T06:23:07.752Z,1.93
2018-01-24T06:24:09.747Z,2.23
2018-01-24T06:25:11.031Z,2.10
2018-01-24T06:26:12.274Z,2.20
2018-01-24T06:27:14.324Z,2.03
2018-01-24T06:28:16.324Z,8.03
2018-01-24T06:29:17.626Z,5.83
2018-01-24T06:31:31.408Z,9.50
2018-01-24T06:32:32.730Z,12.37
2018-01-24T06:33:46.276Z,7.37
2018-01-24T06:34:47.541Z,4.40
2018-01-24T06:35:48.896Z,4.97
2018-01-24T06:36:57.953Z,6.67
2018-01-24T06:37:59.400Z,6.60
2018-01-24T06:39:01.916Z,5.00
2018-01-24T06:40:06.095Z,3.70
2018-01-24T06:41:12.382Z,3.40
2018-01-24T06:42:13.639Z,2.90
2018-01-24T06:43:14.888Z,3.00
2018-01-24T06:44:16.161Z,2.67
2018-01-24T06:45:17.392Z,2.03
2018-01-24T06:46:18.634Z,2.37
2018-01-24T06:47:19.879Z,2.73
2018-01-24T06:48:21.874Z,2.10
2018-01-24T06:49:23.138Z,2.00
2018-01-24T06:50:36.643Z,1.97
2018-01-24T06:51:37.970Z,2.10
2018-01-24T06:52:39.245Z,2.47
2018-01-24T06:53:40.692Z,2.60
2018-01-24T06:54:42.946Z,2.70
2018-01-24T06:55:45.237Z,2.17
2018-01-24T06:56:46.747Z,2.50
2018-01-24T06:57:48.218Z,2.57
2018-01-24T06:58:49.482Z,2.10
2018-01-24T06:59:50.843Z,1.90
2018-01-24T07:00:52.095Z,2.00
2018-01-24T07:01:53.349Z,2.97
2018-01-24T07:02:55.355Z,2.00
2018-01-24T07:03:56.649Z,2.00
2018-01-24T07:04:58.213Z,2.37
2018-01-24T07:05:59.484Z,1.80
2018-01-24T07:07:00.780Z,2.10
2018-01-24T07:08:02.074Z,2.27
2018-01-24T07:09:04.304Z,2.00
2018-01-24T07:10:05.617Z,2.90
2018-01-24T07:11:06.918Z,3.37
2018-01-24T07:12:21.052Z,3.83
2018-01-24T07:13:35.239Z,4.20
2018-01-24T07:14:42.504Z,2.50
2018-01-24T07:15:44.050Z,2.17
2018-01-24T07:16:45.360Z,2.20
2018-01-24T07:17:46.734Z,2.03
2018-01-24T07:18:49.047Z,2.30
2018-01-24T07:19:51.076Z,1.77
2018-01-24T07:20:52.359Z,2.60
2018-01-24T07:21:53.657Z,2.00
2018-01-24T07:22:54.902Z,2.70
2018-01-24T07:23:56.913Z,3.23
2018-01-24T07:24:58.232Z,2.70
2018-01-24T07:25:59.769Z,3.00
2018-01-24T07:27:01.049Z,2.80
2018-01-24T07:28:02.311Z,2.80
2018-01-24T07:29:04.320Z,2.10
2018-01-24T07:30:05.618Z,2.40
2018-01-24T07:31:06.913Z,2.30
2018-01-24T07:32:08.169Z,2.50
2018-01-24T07:33:10.173Z,1.90
2018-01-24T07:34:11.425Z,1.80
2018-01-24T07:35:12.729Z,1.90
2018-01-24T07:36:14.151Z,1.90
2018-01-24T07:37:16.920Z,2.20
2018-01-24T07:38:18.207Z,3.00
2018-01-24T07:39:20.214Z,2.77
2018-01-24T07:40:21.528Z,3.10
2018-01-24T07:41:23.844Z,2.83
2018-01-24T07:42:25.106Z,3.40
2018-01-24T07:43:26.399Z,3.77
2018-01-24T07:44:27.684Z,2.77
2018-01-24T07:45:28.941Z,3.30
2018-01-24T07:46:31.306Z,5.23
2018-01-24T07:47:33.326Z,4.33
2018-01-24T07:48:34.605Z,5.10
2018-01-24T07:49:35.854Z,4.50
2018-01-24T07:50:37.104Z,3.23
2018-01-24T07:51:38.653Z,3.13
2018-01-24T07:52:39.901Z,4.37
2018-01-24T07:53:41.185Z,4.43
2018-01-24T07:54:42.467Z,3.73
2018-01-24T07:55:43.685Z,3.20
2018-01-24T07:56:44.953Z,3.10
2018-01-24T07:57:46.191Z,3.87
2018-01-24T07:58:47.473Z,2.67
2018-01-24T07:59:48.724Z,2.77
2018-01-24T08:00:49.988Z,3.27
2018-01-24T08:01:51.275Z,3.03
2018-01-24T08:02:52.517Z,2.43
2018-01-24T08:03:53.797Z,3.07
2018-01-24T08:04:55.141Z,2.83
2018-01-24T08:05:56.429Z,2.97
2018-01-24T08:06:57.714Z,2.80
2018-01-24T08:07:58.965Z,2.70
2018-01-24T08:09:00.977Z,3.07
2018-01-24T08:10:02.283Z,2.63
2018-01-24T08:11:03.529Z,2.00
2018-01-24T08:12:04.794Z,2.20
2018-01-24T08:13:06.057Z,3.00
2018-01-24T08:14:07.293Z,2.70
2018-01-24T08:15:08.532Z,2.47
2018-01-24T08:16:10.505Z,2.40
2018-01-24T08:17:11.778Z,2.10
2018-01-24T08:18:13.021Z,2.60
2018-01-24T08:19:14.257Z,3.30
2018-01-24T08:20:15.504Z,2.70
2018-01-24T08:21:16.761Z,1.90
2018-01-24T08:22:18.771Z,1.60
2018-01-24T08:23:20.017Z,2.20
2018-01-24T08:24:21.283Z,2.10
2018-01-24T08:25:23.273Z,2.60
2018-01-24T08:26:24.508Z,1.70
2018-01-24T08:27:25.769Z,1.53
2018-01-24T08:28:27.024Z,1.60
2018-01-24T08:29:28.282Z,1.47
2018-01-24T08:30:30.263Z,1.63
2018-01-24T08:31:31.496Z,2.00
2018-01-24T08:32:33.032Z,2.03
2018-01-24T08:33:34.273Z,2.40
2018-01-24T08:34:35.513Z,2.90
2018-01-24T08:35:36.768Z,2.60
2018-01-24T08:36:38.005Z,2.17
2018-01-24T08:37:39.528Z,1.70
2018-01-24T08:38:40.788Z,3.87
2018-01-24T08:39:42.029Z,2.13
2018-01-24T08:40:43.275Z,2.20
2018-01-24T08:41:44.513Z,1.90
2018-01-24T08:42:45.793Z,1.83
2018-01-24T08:43:47.033Z,2.43
2018-01-24T08:44:48.281Z,4.17
2018-01-24T08:45:49.534Z,2.17
2018-01-24T08:46:50.765Z,3.43
2018-01-24T08:47:52.254Z,8.73
2018-01-24T08:48:54.232Z,20.43
2018-01-24T08:49:55.477Z,23.73
2018-01-24T08:50:56.715Z,16.10
2018-01-24T08:51:57.952Z,11.10
2018-01-24T08:52:59.219Z,8.37
2018-01-24T08:54:00.459Z,7.37
2018-01-24T08:55:01.697Z,8.33
2018-01-24T08:56:02.945Z,8.17
2018-01-24T08:57:04.932Z,12.13
2018-01-24T08:58:06.183Z,15.07
2018-01-24T08:59:07.424Z,7.47
2018-01-24T09:00:08.675Z,3.50
2018-01-24T09:01:09.917Z,3.03
2018-01-24T09:02:11.151Z,2.50
2018-01-24T09:03:12.403Z,11.10
2018-01-24T09:04:13.643Z,5.93
2018-01-24T09:05:15.629Z,4.83
2018-01-24T09:06:16.886Z,30.77
2018-01-24T09:07:18.117Z,33.57
2018-01-24T09:08:19.373Z,22.27
2018-01-24T09:09:20.665Z,11.87
2018-01-24T09:10:21.912Z,8.20
2018-01-24T09:11:23.153Z,6.50
2018-01-24T09:12:24.396Z,5.67
2018-01-24T09:13:25.655Z,5.80
2018-01-24T09:14:26.905Z,3.93
2018-01-24T09:15:28.153Z,4.30
2018-01-24T09:16:30.145Z,4.17
2018-01-24T09:17:31.375Z,3.43
2018-01-24T09:18:32.625Z,2.60
2018-01-24T09:19:33.873Z,2.23
2018-01-24T09:20:35.110Z,2.92
2018-01-24T09:21:36.337Z,2.20
2018-01-24T09:22:37.575Z,1.90
2018-01-24T09:23:39.098Z,1.30
2018-01-24T09:24:40.343Z,1.50
2018-01-24T09:25:42.709Z,1.83
2018-01-24T09:26:43.953Z,2.03
2018-01-24T09:27:45.200Z,1.93
2018-01-24T09:28:46.463Z,1.80
2018-01-24T09:29:48.459Z,8.30
2018-01-24T09:30:49.713Z,4.83
2018-01-24T09:31:50.944Z,2.40
2018-01-24T09:32:52.181Z,3.37
2018-01-24T09:33:53.696Z,10.27
2018-01-24T09:34:54.951Z,12.33
2018-01-24T09:35:56.190Z,6.67
2018-01-24T09:36:57.427Z,4.20
2018-01-24T09:37:58.681Z,3.20
2018-01-24T09:39:00.195Z,10.40
2018-01-24T09:40:01.431Z,17.83
2018-01-24T09:41:02.670Z,8.97
2018-01-24T09:42:03.949Z,3.33
2018-01-24T09:43:05.935Z,1.57
2018-01-24T09:44:07.461Z,1.73
2018-01-24T09:45:08.701Z,1.27
2018-01-24T09:46:09.952Z,1.10
2018-01-24T09:47:11.191Z,1.10
2018-01-24T09:48:12.443Z,0.93
2018-01-24T09:49:13.699Z,0.80
2018-01-24T09:50:14.944Z,0.90
2018-01-24T09:51:16.929Z,1.05
2018-01-24T09:52:18.177Z,1.10
2018-01-24T09:53:19.427Z,0.80
2018-01-24T09:54:20.745Z,1.00
2018-01-24T09:55:21.984Z,0.70
2018-01-24T09:56:23.221Z,0.70
2018-01-24T09:57:24.469Z,0.70
2018-01-24T09:58:25.699Z,0.70
2018-01-24T09:59:26.957Z,1.57
2018-01-24T10:00:28.205Z,0.80
2018-01-24T10:01:29.487Z,0.97
2018-01-24T10:02:30.737Z,0.90
2018-01-24T10:03:31.965Z,1.00
2018-01-24T10:04:33.483Z,1.08
2018-01-24T10:05:34.725Z,0.88
2018-01-24T10:06:35.965Z,1.00
2018-01-24T10:07:37.201Z,1.00
2018-01-24T10:08:38.451Z,1.37
2018-01-24T10:09:39.717Z,2.70
2018-01-24T10:10:40.956Z,2.25
2018-01-24T10:11:42.205Z,2.40
2018-01-24T10:12:43.453Z,2.78
2018-01-24T10:13:45.422Z,3.03
2018-01-24T10:14:46.677Z,2.60
2018-01-24T10:15:47.909Z,1.50
2018-01-24T10:16:49.146Z,1.02
2018-01-24T10:17:50.385Z,1.17
2018-01-24T10:18:51.653Z,0.90
2018-01-24T10:19:52.909Z,1.12
2018-01-24T10:20:54.896Z,1.20
2018-01-24T10:21:56.147Z,0.80
2018-01-24T10:22:57.382Z,1.05
2018-01-24T10:23:58.632Z,1.33
2018-01-24T10:25:00.185Z,0.75
2018-01-24T10:26:01.491Z,0.90
2018-01-24T10:27:02.756Z,0.70
2018-01-24T10:28:03.994Z,0.93
2018-01-24T10:29:05.248Z,1.00
2018-01-24T10:30:06.777Z,1.12
2018-01-24T10:31:08.041Z,1.77
2018-01-24T10:32:10.038Z,6.15
2018-01-24T10:33:11.277Z,4.10
2018-01-24T10:34:12.543Z,3.20
2018-01-24T10:35:13.812Z,1.90
2018-01-24T10:36:15.061Z,1.60
2018-01-24T10:37:16.319Z,1.02
2018-01-24T10:38:17.563Z,1.67
2018-01-24T10:39:18.811Z,1.05
2018-01-24T10:40:20.339Z,1.30
2018-01-24T10:41:21.587Z,0.90
2018-01-24T10:42:22.825Z,1.10
2018-01-24T10:43:24.061Z,1.15
2018-01-24T10:44:25.305Z,0.98
2018-01-24T10:45:26.851Z,0.90
2018-01-24T10:46:28.087Z,0.90
2018-01-24T10:47:30.929Z,0.82
2018-01-24T10:48:32.161Z,0.80
2018-01-24T10:49:33.419Z,0.90
2018-01-24T10:50:34.666Z,1.00
2018-01-24T10:51:36.646Z,0.80
2018-01-24T10:52:37.890Z,1.10
2018-01-24T10:53:39.142Z,1.00
2018-01-24T10:54:40.384Z,0.95
2018-01-24T10:55:41.890Z,1.30
2018-01-24T10:56:43.139Z,1.08
2018-01-24T10:57:44.383Z,1.00
2018-01-24T10:58:45.639Z,1.08
2018-01-24T10:59:46.885Z,0.90
2018-01-24T11:00:48.140Z,0.82
2018-01-24T11:01:50.145Z,1.62
2018-01-24T11:02:51.385Z,0.90
2018-01-24T11:03:52.617Z,0.90
2018-01-24T11:04:53.872Z,1.02
2018-01-24T11:05:55.145Z,0.80
2018-01-24T11:06:57.113Z,0.60
2018-01-24T11:07:58.382Z,0.65
2018-01-24T11:08:59.623Z,0.80
2018-01-24T11:10:00.865Z,0.73
2018-01-24T11:11:02.403Z,0.73
2018-01-24T11:12:03.638Z,0.88
2018-01-24T11:13:04.887Z,1.02
2018-01-24T11:14:06.222Z,0.80
2018-01-24T11:15:07.410Z,1.02
2018-01-24T11:16:08.663Z,1.00
2018-01-24T11:17:09.905Z,1.50
2018-01-24T11:18:11.163Z,0.82
2018-01-24T11:19:12.405Z,0.80
2018-01-24T11:20:13.647Z,0.70
2018-01-24T11:21:15.650Z,1.52
2018-01-24T11:22:16.875Z,1.05
2018-01-24T11:23:18.121Z,0.90
2018-01-24T11:24:19.369Z,0.80
2018-01-24T11:25:20.611Z,1.30
2018-01-24T11:26:21.891Z,1.50
2018-01-24T11:27:23.865Z,1.20
2018-01-24T11:28:25.109Z,1.73
2018-01-24T11:29:26.361Z,1.20
2018-01-24T11:30:27.606Z,1.17
2018-01-24T11:31:28.871Z,1.00
2018-01-24T11:32:30.880Z,1.23
2018-01-24T11:33:32.119Z,1.10
2018-01-24T11:34:33.350Z,1.65
2018-01-24T11:35:34.604Z,0.80
2018-01-24T11:36:35.871Z,1.02
2018-01-24T11:37:37.852Z,0.95
2018-01-24T11:38:39.075Z,1.40
2018-01-24T11:39:40.302Z,1.10
2018-01-24T11:40:42.302Z,1.30
2018-01-24T11:41:43.581Z,0.90
2018-01-24T11:42:45.583Z,1.37
2018-01-24T11:43:46.839Z,1.83
2018-01-24T11:44:48.073Z,0.80
2018-01-24T11:45:49.321Z,1.00
2018-01-24T11:46:50.568Z,0.90
2018-01-24T11:47:52.560Z,1.10
2018-01-24T11:48:53.796Z,1.17
2018-01-24T11:49:55.035Z,1.60
2018-01-24T11:50:56.297Z,1.27
2018-01-24T11:51:57.607Z,1.12
2018-01-24T11:52:58.850Z,1.73
2018-01-24T11:54:00.095Z,1.25
2018-01-24T11:55:01.355Z,1.10
2018-01-24T11:56:02.605Z,1.40
2018-01-24T11:57:04.595Z,1.33
2018-01-24T11:58:05.832Z,0.95
2018-01-24T11:59:07.101Z,1.30
2018-01-24T12:00:08.357Z,1.43
2018-01-24T12:01:09.604Z,0.90
2018-01-24T12:02:11.604Z,0.87
2018-01-24T12:03:12.842Z,1.02
2018-01-24T12:04:14.091Z,1.12
2018-01-24T12:05:15.321Z,0.80
2018-01-24T12:06:16.572Z,1.15
2018-01-24T12:07:18.111Z,1.27
2018-01-24T12:08:19.343Z,0.80
2018-01-24T12:09:20.622Z,0.80
2018-01-24T12:10:22.609Z,1.15
2018-01-24T12:11:23.849Z,0.70
2018-01-24T12:12:25.136Z,0.60
2018-01-24T12:13:27.118Z,0.70
2018-01-24T12:14:28.373Z,0.77
2018-01-24T12:15:29.630Z,0.70
2018-01-24T12:16:30.858Z,0.70
2018-01-24T12:17:32.381Z,0.60
2018-01-24T12:18:33.637Z,1.05
2018-01-24T12:19:34.887Z,0.90
2018-01-24T12:20:36.136Z,1.12
2018-01-24T12:21:38.129Z,0.62
2018-01-24T12:22:39.673Z,1.20
2018-01-24T12:23:40.936Z,0.80
2018-01-24T12:24:42.172Z,0.80
2018-01-24T12:25:43.405Z,1.27
2018-01-24T12:26:46.889Z,0.80
2018-01-24T12:27:48.172Z,0.70
2018-01-24T12:28:50.165Z,1.00
2018-01-24T12:29:51.405Z,0.80
2018-01-24T12:30:52.640Z,0.80
2018-01-24T12:31:53.903Z,0.70
2018-01-24T12:32:55.409Z,1.73
2018-01-24T12:33:56.650Z,0.65
2018-01-24T12:34:57.915Z,0.80
2018-01-24T12:35:59.143Z,0.93
2018-01-24T12:37:00.380Z,0.80
2018-01-24T12:38:01.912Z,0.98
2018-01-24T12:39:03.203Z,1.05
2018-01-24T12:40:11.352Z,0.90
2018-01-24T12:41:12.598Z,0.80
2018-01-24T12:42:13.859Z,0.80
2018-01-24T12:43:15.859Z,0.73
2018-01-24T12:44:17.103Z,0.60
2018-01-24T12:45:18.373Z,0.60
2018-01-24T12:46:20.355Z,0.70
2018-01-24T12:47:21.593Z,0.60
2018-01-24T12:48:22.846Z,0.73
2018-01-24T12:49:24.081Z,0.60
2018-01-24T12:50:25.337Z,0.70
2018-01-24T12:51:26.588Z,0.60
2018-01-24T12:52:27.833Z,0.50
2018-01-24T12:53:29.821Z,0.70
2018-01-24T12:54:31.116Z,0.62
2018-01-24T12:55:32.358Z,0.60
2018-01-24T12:56:34.356Z,0.98
2018-01-24T12:57:35.616Z,0.60
2018-01-24T12:58:37.145Z,0.90
2018-01-24T12:59:38.364Z,0.80
2018-01-24T13:00:39.625Z,1.33
2018-01-24T13:01:40.894Z,1.75
2018-01-24T13:02:42.885Z,3.03
2018-01-24T13:03:44.429Z,2.22
2018-01-24T13:04:45.663Z,2.85
2018-01-24T13:05:46.893Z,4.15
2018-01-24T13:06:48.127Z,2.75
2018-01-24T13:07:49.363Z,1.70
2018-01-24T13:08:50.636Z,1.55
2018-01-24T13:09:51.877Z,1.15
2018-01-24T13:10:53.117Z,1.77
2018-01-24T13:11:54.361Z,1.73
2018-01-24T13:12:55.601Z,2.45
2018-01-24T13:13:57.597Z,5.50
2018-01-24T13:14:58.844Z,4.60
2018-01-24T13:16:00.097Z,3.73
2018-01-24T13:17:01.349Z,2.05
2018-01-24T13:18:02.615Z,2.35
2018-01-24T13:19:03.869Z,3.28
2018-01-24T13:20:05.112Z,3.37
2018-01-24T13:21:06.436Z,3.33
2018-01-24T13:22:07.710Z,5.05
2018-01-24T13:23:08.952Z,2.95
2018-01-24T13:24:10.461Z,2.10
2018-01-24T13:25:11.725Z,2.50
2018-01-24T13:26:13.655Z,3.50
2018-01-24T13:27:14.945Z,2.60
2018-01-24T13:28:16.926Z,2.28
2018-01-24T13:29:18.457Z,1.65
2018-01-24T13:30:19.711Z,1.30
2018-01-24T13:31:20.958Z,0.90
2018-01-24T13:32:22.203Z,0.95
2018-01-24T13:33:23.469Z,1.08
2018-01-24T13:34:24.994Z,1.00
2018-01-24T13:35:26.249Z,1.08
2018-01-24T13:36:28.219Z,1.00
2018-01-24T13:37:30.215Z,1.60
2018-01-24T13:38:31.451Z,0.80
2018-01-24T13:39:32.723Z,0.82